createdAt,value
2018-10-17T00:02:00.913Z,57.50
2018-10-17T00:04:28.962Z,57.65
2018-10-17T00:06:57.021Z,61.40
2018-10-17T00:09:25.129Z,64.87
2018-10-17T00:11:53.196Z,64.30
2018-10-17T00:14:21.260Z,65.13
2018-10-17T00:16:49.301Z,65.37
2018-10-17T00:19:17.368Z,61.20
2018-10-17T00:21:45.412Z,65.17
2018-10-17T00:24:13.468Z,66.03
2018-10-17T00:26:41.544Z,68.17
2018-10-17T00:29:09.654Z,65.60
2018-10-17T00:31:37.676Z,62.58
2018-10-17T00:34:05.739Z,61.83
2018-10-17T00:36:33.793Z,64.82
2018-10-17T00:39:01.884Z,62.15
2018-10-17T00:41:29.941Z,61.73
2018-10-17T00:43:57.991Z,59.88
2018-10-17T00:46:26.188Z,62.98
2018-10-17T00:48:54.248Z,61.02
2018-10-17T00:51:22.296Z,63.40
2018-10-17T00:53:50.363Z,63.25
2018-10-17T00:56:18.433Z,63.90
2018-10-17T00:59:07.559Z,67.53
2018-10-17T01:01:35.696Z,68.25
2018-10-17T01:04:04.039Z,68.10
2018-10-17T01:06:33.136Z,71.37
2018-10-17T01:09:02.164Z,66.53
2018-10-17T01:11:30.234Z,63.68
2018-10-17T01:13:58.298Z,60.80
2018-10-17T01:16:26.430Z,64.95
2018-10-17T01:18:54.541Z,65.17
2018-10-17T01:21:22.562Z,65.17
2018-10-17T01:23:50.756Z,62.78
2018-10-17T01:26:18.819Z,63.05
2018-10-17T01:28:46.872Z,65.20
2018-10-17T01:31:15.014Z,59.95
2018-10-17T01:33:42.992Z,62.50
2018-10-17T01:36:11.056Z,66.97
2018-10-17T01:38:39.136Z,66.40
2018-10-17T01:41:07.230Z,63.02
2018-10-17T01:43:35.268Z,65.37
2018-10-17T01:46:03.316Z,66.40
2018-10-17T01:48:31.357Z,65.15
2018-10-17T01:50:59.757Z,63.70
2018-10-17T01:53:27.817Z,61.77
2018-10-17T01:55:55.864Z,63.42
2018-10-17T01:58:23.932Z,65.40
2018-10-17T02:00:52.026Z,63.75
2018-10-17T02:03:20.056Z,64.07
2018-10-17T02:05:48.125Z,61.55
2018-10-17T02:08:16.171Z,60.70
2018-10-17T02:10:44.212Z,59.77
2018-10-17T02:13:12.310Z,60.35
2018-10-17T02:15:40.382Z,59.08
2018-10-17T02:18:08.409Z,57.62
2018-10-17T02:20:36.457Z,58.52
2018-10-17T02:23:04.800Z,57.78
2018-10-17T02:25:32.781Z,55.80
2018-10-17T02:28:00.988Z,55.58
2018-10-17T02:30:29.060Z,57.70
2018-10-17T02:32:57.116Z,56.63
2018-10-17T02:35:25.173Z,56.77
2018-10-17T02:37:53.277Z,55.28
2018-10-17T02:40:21.361Z,54.30
2018-10-17T02:42:49.384Z,55.40
2018-10-17T02:45:17.467Z,54.77
2018-10-17T02:47:45.519Z,56.15
2018-10-17T02:50:13.582Z,57.33
2018-10-17T02:52:42.431Z,54.88
2018-10-17T02:55:10.708Z,53.83
2018-10-17T02:57:38.989Z,54.38
2018-10-17T03:00:08.244Z,53.70
2018-10-17T03:02:36.297Z,54.27
2018-10-17T03:05:06.817Z,54.90
2018-10-17T03:07:34.882Z,52.63
2018-10-17T03:10:02.927Z,52.55
2018-10-17T03:12:30.989Z,53.75
2018-10-17T03:14:59.039Z,51.73
2018-10-17T03:17:27.101Z,52.40
2018-10-17T03:19:55.161Z,52.90
2018-10-17T03:22:23.233Z,51.37
2018-10-17T03:24:51.347Z,51.50
2018-10-17T03:27:19.344Z,53.08
2018-10-17T03:29:47.429Z,52.43
2018-10-17T03:32:15.489Z,51.75
2018-10-17T03:34:43.557Z,54.03
2018-10-17T03:37:11.689Z,53.35
2018-10-17T03:39:39.677Z,53.00
2018-10-17T03:42:07.738Z,52.60
2018-10-17T03:44:35.784Z,52.13
2018-10-17T03:47:03.873Z,49.03
2018-10-17T03:49:31.957Z,50.55
2018-10-17T03:51:59.976Z,50.95
2018-10-17T03:54:28.047Z,50.88
2018-10-17T03:56:56.153Z,51.30
2018-10-17T03:59:24.291Z,49.55
2018-10-17T04:01:52.257Z,49.55
2018-10-17T04:07:02.816Z,50.38
2018-10-17T04:09:30.817Z,47.65
2018-10-17T04:11:58.886Z,48.23
2018-10-17T04:14:26.937Z,47.05
2018-10-17T04:16:55.072Z,47.95
2018-10-17T04:19:23.058Z,47.70
2018-10-17T04:21:51.140Z,45.90
2018-10-17T04:24:19.216Z,47.95
2018-10-17T04:26:48.076Z,48.92
2018-10-17T04:29:16.205Z,49.03
2018-10-17T04:31:44.238Z,48.97
2018-10-17T04:34:12.313Z,48.30
2018-10-17T04:36:40.385Z,49.65
2018-10-17T04:39:09.664Z,48.28
2018-10-17T04:41:37.736Z,47.53
2018-10-17T04:44:06.012Z,48.28
2018-10-17T04:46:34.096Z,47.58
2018-10-17T04:49:02.219Z,44.85
2018-10-17T04:51:30.319Z,47.65
2018-10-17T04:53:58.362Z,46.05
2018-10-17T04:56:26.434Z,45.05
2018-10-17T04:58:54.549Z,44.35
2018-10-17T05:01:22.598Z,45.60
2018-10-17T05:03:50.656Z,45.60
2018-10-17T05:06:18.733Z,44.80
2018-10-17T05:08:46.803Z,44.07
2018-10-17T05:11:15.042Z,43.25
2018-10-17T05:13:43.082Z,43.70
2018-10-17T05:16:11.161Z,44.40
2018-10-17T05:18:39.279Z,43.87
2018-10-17T05:21:07.360Z,44.73
2018-10-17T05:23:35.449Z,43.47
2018-10-17T05:26:03.510Z,41.77
2018-10-17T05:28:31.621Z,42.45
2018-10-17T05:30:59.720Z,40.98
2018-10-17T05:33:27.729Z,44.30
2018-10-17T05:35:55.861Z,42.15
2018-10-17T05:38:23.932Z,42.20
2018-10-17T05:40:52.407Z,41.23
2018-10-17T05:43:21.270Z,41.50
2018-10-17T05:45:49.408Z,42.30
2018-10-17T05:48:17.467Z,42.43
2018-10-17T05:50:45.766Z,43.25
2018-10-17T05:53:14.026Z,43.55
2018-10-17T05:55:42.190Z,43.75
2018-10-17T05:58:10.394Z,48.15
2018-10-17T06:00:38.463Z,46.70
2018-10-17T06:03:06.723Z,49.70
2018-10-17T06:05:34.784Z,47.00
2018-10-17T06:08:03.231Z,49.40
2018-10-17T06:10:31.302Z,44.65
2018-10-17T06:12:59.383Z,44.67
2018-10-17T06:15:27.461Z,47.80
2018-10-17T06:17:55.521Z,42.57
2018-10-17T06:20:23.601Z,43.25
2018-10-17T06:22:51.711Z,42.20
2018-10-17T06:25:19.817Z,44.85
2018-10-17T06:27:47.890Z,45.25
2018-10-17T06:30:15.999Z,46.70
2018-10-17T06:32:44.053Z,44.53
2018-10-17T06:35:12.227Z,44.10
2018-10-17T06:37:40.179Z,43.60
2018-10-17T06:40:08.926Z,41.75
2018-10-17T06:42:37.596Z,41.55
2018-10-17T06:45:05.969Z,41.23
2018-10-17T06:47:34.689Z,39.78
2018-10-17T06:50:02.796Z,39.80
2018-10-17T06:52:30.860Z,39.42
2018-10-17T06:54:59.015Z,41.55
2018-10-17T06:57:27.037Z,38.13
2018-10-17T06:59:55.109Z,38.17
2018-10-17T07:02:23.330Z,37.25
2018-10-17T07:04:51.353Z,38.53
2018-10-17T07:07:19.476Z,38.55
2018-10-17T07:09:48.157Z,38.00
2018-10-17T07:12:16.213Z,38.87
2018-10-17T07:14:44.284Z,38.28
2018-10-17T07:17:12.852Z,39.15
2018-10-17T07:19:41.581Z,36.73
2018-10-17T07:22:09.636Z,37.03
2018-10-17T07:24:37.704Z,36.38
2018-10-17T07:27:05.752Z,36.28
2018-10-17T07:29:33.954Z,35.98
2018-10-17T07:32:02.043Z,34.67
2018-10-17T07:34:30.096Z,34.60
2018-10-17T07:36:58.201Z,35.03
2018-10-17T07:39:26.395Z,34.10
2018-10-17T07:41:54.692Z,33.63
2018-10-17T07:44:22.732Z,35.85
2018-10-17T07:46:50.825Z,32.48
2018-10-17T07:49:18.884Z,32.83
2018-10-17T07:51:47.017Z,33.13
2018-10-17T07:54:15.153Z,33.42
2018-10-17T07:56:43.157Z,30.82
2018-10-17T07:59:11.221Z,30.45
2018-10-17T08:01:39.308Z,31.37
2018-10-17T08:04:07.385Z,29.32
2018-10-17T08:06:35.513Z,30.20
2018-10-17T08:09:07.685Z,30.92
2018-10-17T08:11:35.965Z,31.60
2018-10-17T08:14:04.027Z,30.88
2018-10-17T08:16:32.076Z,30.97
2018-10-17T08:19:00.154Z,28.17
2018-10-17T08:21:28.379Z,26.75
2018-10-17T08:23:56.412Z,25.92
2018-10-17T08:26:24.622Z,25.45
2018-10-17T08:28:52.747Z,25.00
2018-10-17T08:31:20.873Z,23.75
2018-10-17T08:33:48.953Z,25.32
2018-10-17T08:36:17.224Z,29.42
2018-10-17T08:38:45.106Z,28.20
2018-10-17T08:41:13.261Z,26.70
2018-10-17T08:43:41.594Z,26.40
2018-10-17T08:46:10.744Z,27.58
2018-10-17T08:48:51.336Z,28.83
2018-10-17T08:51:26.172Z,28.55
2018-10-17T08:54:00.889Z,27.50
2018-10-17T08:56:34.921Z,29.77
2018-10-17T09:01:55.921Z,30.57
2018-10-17T09:07:06.651Z,29.10
2018-10-17T09:09:35.076Z,28.50
2018-10-17T09:12:03.475Z,29.45
2018-10-17T09:14:31.530Z,28.70
2018-10-17T09:16:59.602Z,27.50
2018-10-17T09:19:27.788Z,28.85
2018-10-17T09:21:56.225Z,27.15
2018-10-17T09:24:23.864Z,26.90
2018-10-17T09:26:51.945Z,27.95
2018-10-17T09:29:20.019Z,27.27
2018-10-17T09:31:48.103Z,27.13
2018-10-17T09:34:16.161Z,25.27
2018-10-17T09:36:44.215Z,25.23
2018-10-17T09:39:12.634Z,29.57
2018-10-17T09:41:41.437Z,24.95
2018-10-17T09:44:09.481Z,23.47
2018-10-17T09:46:37.619Z,24.07
2018-10-17T09:49:05.814Z,23.52
2018-10-17T09:51:34.246Z,24.00
2018-10-17T09:54:02.354Z,25.70
2018-10-17T09:56:30.371Z,25.57
2018-10-17T09:58:58.429Z,24.90
2018-10-17T10:01:31.980Z,24.35
2018-10-17T10:04:00.028Z,24.98
2018-10-17T10:06:28.066Z,26.85
2018-10-17T10:08:56.129Z,25.70
2018-10-17T10:11:24.196Z,22.50
2018-10-17T10:13:52.251Z,23.05
2018-10-17T10:16:20.368Z,24.92
2018-10-17T10:18:48.357Z,24.77
2018-10-17T10:21:16.404Z,22.40
2018-10-17T10:23:44.549Z,22.25
2018-10-17T10:26:12.497Z,22.40
2018-10-17T10:28:40.600Z,20.70
2018-10-17T10:31:08.624Z,21.62
2018-10-17T10:33:36.706Z,21.05
2018-10-17T10:36:04.918Z,19.95
2018-10-17T10:38:32.901Z,19.13
2018-10-17T10:41:00.955Z,19.20
2018-10-17T10:43:28.997Z,17.60
2018-10-17T10:45:57.025Z,17.48
2018-10-17T10:48:25.073Z,19.52
2018-10-17T10:50:53.132Z,19.00
2018-10-17T10:53:21.181Z,20.43
2018-10-17T10:55:49.249Z,18.50
2018-10-17T10:58:17.357Z,18.42
2018-10-17T11:00:45.364Z,19.45
2018-10-17T11:03:13.462Z,17.42
2018-10-17T11:05:41.722Z,17.95
2018-10-17T11:08:09.613Z,19.20
2018-10-17T11:10:37.580Z,19.00
2018-10-17T11:13:06.174Z,20.97
2018-10-17T11:15:34.274Z,20.00
2018-10-17T11:18:02.370Z,19.07
2018-10-17T11:20:30.474Z,18.52
2018-10-17T11:22:58.605Z,19.70
2018-10-17T11:25:26.591Z,18.60
2018-10-17T11:27:54.660Z,18.23
2018-10-17T11:30:22.780Z,18.60
2018-10-17T11:32:50.818Z,18.98
2018-10-17T11:35:18.955Z,18.65
2018-10-17T11:37:46.972Z,24.07
2018-10-17T11:40:15.043Z,19.23
2018-10-17T11:42:43.231Z,18.95
2018-10-17T11:45:11.376Z,18.17
2018-10-17T11:47:39.465Z,19.10
2018-10-17T11:50:08.952Z,17.45
2018-10-17T11:52:37.191Z,17.45
2018-10-17T11:55:05.370Z,16.73
2018-10-17T11:57:33.492Z,16.20
2018-10-17T12:00:01.620Z,18.35
2018-10-17T12:02:29.667Z,16.60
2018-10-17T12:04:58.066Z,16.52
2018-10-17T12:07:28.115Z,14.65
2018-10-17T12:09:56.203Z,15.43
2018-10-17T12:12:24.329Z,15.30
2018-10-17T12:14:52.390Z,14.70
2018-10-17T12:17:20.375Z,15.38
2018-10-17T12:19:48.448Z,13.90
2018-10-17T12:22:16.462Z,13.90
2018-10-17T12:24:45.444Z,14.38
2018-10-17T12:27:13.554Z,13.53
2018-10-17T12:29:41.525Z,14.00
2018-10-17T12:32:09.648Z,16.50
2018-10-17T12:34:38.019Z,14.65
2018-10-17T12:37:06.072Z,13.60
2018-10-17T12:39:34.188Z,12.30
2018-10-17T12:42:02.200Z,15.38
2018-10-17T12:44:30.272Z,15.25
2018-10-17T12:46:58.329Z,13.18
2018-10-17T12:49:26.387Z,12.90
2018-10-17T12:51:54.466Z,13.60
2018-10-17T12:54:22.584Z,13.53
2018-10-17T12:56:50.829Z,12.25
2018-10-17T12:59:18.988Z,13.43
2018-10-17T13:01:46.989Z,14.13
2018-10-17T13:04:15.497Z,13.10
2018-10-17T13:06:43.550Z,13.15
2018-10-17T13:09:12.382Z,14.25
2018-10-17T13:11:40.734Z,12.87
2018-10-17T13:14:09.184Z,12.60
2018-10-17T13:16:37.286Z,13.62
2018-10-17T13:19:05.419Z,14.00
2018-10-17T13:21:33.422Z,15.60
2018-10-17T13:24:02.075Z,18.23
2018-10-17T13:26:30.113Z,13.60
2018-10-17T13:28:58.205Z,14.13
2018-10-17T13:31:26.253Z,14.28
2018-10-17T13:33:54.345Z,14.68
2018-10-17T13:36:22.399Z,15.55
2018-10-17T13:38:50.433Z,14.05
2018-10-17T13:41:18.572Z,13.60
2018-10-17T13:43:46.523Z,13.83
2018-10-17T13:46:14.577Z,15.67
2018-10-17T13:48:42.613Z,15.50
2018-10-17T13:51:11.045Z,14.57
2018-10-17T13:53:39.094Z,13.88
2018-10-17T13:56:07.142Z,14.45
2018-10-17T13:58:35.172Z,15.15
2018-10-17T14:01:03.260Z,15.68
2018-10-17T14:03:31.284Z,14.33
2018-10-17T14:05:59.408Z,15.13
2018-10-17T14:08:27.413Z,14.75
2018-10-17T14:10:55.692Z,14.33
2018-10-17T14:13:23.797Z,13.78
2018-10-17T14:15:51.773Z,12.70
2018-10-17T14:18:19.822Z,16.15
2018-10-17T14:20:47.860Z,14.33
2018-10-17T14:23:15.985Z,12.53
2018-10-17T14:25:43.966Z,12.25
2018-10-17T14:28:12.033Z,12.73
2018-10-17T14:30:40.065Z,12.75
2018-10-17T14:33:08.388Z,12.28
2018-10-17T14:35:36.376Z,13.35
2018-10-17T14:38:04.784Z,12.50
2018-10-17T14:40:32.823Z,13.03
2018-10-17T14:43:00.973Z,13.80
2018-10-17T14:45:29.017Z,13.98
2018-10-17T14:47:57.118Z,13.50
2018-10-17T14:50:25.128Z,13.88
2018-10-17T14:52:53.301Z,13.43
2018-10-17T14:55:21.317Z,15.63
2018-10-17T14:57:49.337Z,14.70
2018-10-17T15:00:17.377Z,14.85
2018-10-17T15:02:45.434Z,14.65
2018-10-17T15:05:13.575Z,14.13
2018-10-17T15:07:42.549Z,14.33
2018-10-17T15:10:10.631Z,15.18
2018-10-17T15:12:38.902Z,15.38
2018-10-17T15:15:08.570Z,18.67
2018-10-17T15:17:36.617Z,16.57
2018-10-17T15:20:04.985Z,16.45
2018-10-17T15:22:33.025Z,16.57
2018-10-17T15:25:01.145Z,17.25
2018-10-17T15:27:29.217Z,17.27
2018-10-17T15:29:57.290Z,16.10
2018-10-17T15:32:25.495Z,15.50
2018-10-17T15:34:53.549Z,17.47
2018-10-17T15:37:21.600Z,17.83
2018-10-17T15:39:49.655Z,17.40
2018-10-17T15:42:17.755Z,19.80
2018-10-17T15:44:45.783Z,19.70
2018-10-17T15:47:14.137Z,17.50
2018-10-17T15:49:42.290Z,19.23
2018-10-17T15:52:10.594Z,20.92
2018-10-17T15:54:38.662Z,21.00
2018-10-17T15:57:06.901Z,21.00
2018-10-17T15:59:34.949Z,20.40
2018-10-17T16:02:04.323Z,17.33
2018-10-17T16:04:32.350Z,18.70
2018-10-17T16:07:00.405Z,19.23
2018-10-17T16:09:28.472Z,19.23
2018-10-17T16:11:56.561Z,20.32
2018-10-17T16:14:24.636Z,18.70
2018-10-17T16:16:52.716Z,19.00
2018-10-17T16:19:20.785Z,21.23
2018-10-17T16:21:48.839Z,20.50
2018-10-17T16:24:16.978Z,20.17
2018-10-17T16:26:44.921Z,21.97
2018-10-17T16:29:12.978Z,23.17
2018-10-17T16:31:41.029Z,22.77
2018-10-17T16:34:09.102Z,27.40
2018-10-17T16:36:38.820Z,22.73
2018-10-17T16:39:08.677Z,23.38
2018-10-17T16:41:36.824Z,23.73
2018-10-17T16:44:05.132Z,25.23
2018-10-17T16:46:33.156Z,25.17
2018-10-17T16:49:01.193Z,24.10
2018-10-17T16:51:29.249Z,25.17
2018-10-17T16:53:57.333Z,26.82
2018-10-17T16:56:25.403Z,26.12
2018-10-17T16:58:53.489Z,23.50
2018-10-17T17:01:21.550Z,25.90
2018-10-17T17:03:49.642Z,27.73
2018-10-17T17:06:17.776Z,28.55
2018-10-17T17:08:45.768Z,30.70
2018-10-17T17:11:13.881Z,31.17
2018-10-17T17:13:41.994Z,35.68
2018-10-17T17:16:10.114Z,42.05
2018-10-17T17:18:38.149Z,45.20
2018-10-17T17:21:06.270Z,44.15
2018-10-17T17:23:34.361Z,45.48
2018-10-17T17:26:02.456Z,47.10
2018-10-17T17:28:30.545Z,48.40
2018-10-17T17:33:33.289Z,51.60
2018-10-17T17:36:01.430Z,50.20
2018-10-17T17:38:29.481Z,50.65
2018-10-17T17:40:57.564Z,49.03
2018-10-17T17:43:25.664Z,50.35
2018-10-17T17:45:53.746Z,53.58
2018-10-17T17:48:21.814Z,54.73
2018-10-17T17:50:49.870Z,55.43
2018-10-17T17:53:17.941Z,57.93
2018-10-17T17:55:46.022Z,58.38
2018-10-17T17:58:14.145Z,59.00
2018-10-17T18:00:42.157Z,59.83
2018-10-17T18:03:10.337Z,62.15
2018-10-17T18:05:38.408Z,61.05
2018-10-17T18:08:06.478Z,64.47
2018-10-17T18:10:34.545Z,65.17
2018-10-17T18:13:02.641Z,63.48
2018-10-17T18:15:30.707Z,65.40
2018-10-17T18:17:58.829Z,66.00
2018-10-17T18:20:26.926Z,67.50
2018-10-17T18:22:55.100Z,67.58
2018-10-17T18:25:23.172Z,67.92
2018-10-17T18:27:51.813Z,69.37
2018-10-17T18:30:19.832Z,70.25
2018-10-17T18:32:47.925Z,68.22
2018-10-17T18:35:16.527Z,69.77
2018-10-17T18:37:44.690Z,68.92
2018-10-17T18:40:13.147Z,71.97
2018-10-17T18:42:41.337Z,70.62
2018-10-17T18:45:09.480Z,68.97
2018-10-17T18:47:37.536Z,71.45
2018-10-17T18:50:06.353Z,74.32
2018-10-17T18:52:35.124Z,76.40
2018-10-17T18:55:03.208Z,75.55
2018-10-17T18:57:31.281Z,75.08
2018-10-17T18:59:59.424Z,76.20
2018-10-17T19:02:27.522Z,79.12
2018-10-17T19:04:55.605Z,77.47
2018-10-17T19:07:23.965Z,79.25
2018-10-17T19:09:52.020Z,79.58
2018-10-17T19:12:20.304Z,82.78
2018-10-17T19:14:48.399Z,80.27
2018-10-17T19:17:16.537Z,79.92
2018-10-17T19:19:44.768Z,82.78
2018-10-17T19:22:12.984Z,82.73
2018-10-17T19:24:41.687Z,83.20
2018-10-17T19:27:09.769Z,85.55
2018-10-17T19:29:38.326Z,85.12
2018-10-17T19:32:06.418Z,84.00
2018-10-17T19:34:35.264Z,86.55
2018-10-17T19:37:03.413Z,81.08
2018-10-17T19:39:31.488Z,85.67
2018-10-17T19:41:59.612Z,85.07
2018-10-17T19:44:27.638Z,88.90
2018-10-17T19:46:55.746Z,85.67
2018-10-17T19:49:24.139Z,86.17
2018-10-17T19:51:52.368Z,88.12
2018-10-17T19:54:20.545Z,85.00
2018-10-17T19:56:48.627Z,89.13
2018-10-17T19:59:16.759Z,88.52
2018-10-17T20:01:44.858Z,90.70
2018-10-17T20:04:13.001Z,89.85
2018-10-17T20:06:41.080Z,92.10
2018-10-17T20:09:10.246Z,90.57
2018-10-17T20:11:38.344Z,90.45
2018-10-17T20:14:06.897Z,92.37
2018-10-17T20:16:34.977Z,91.67
2018-10-17T20:19:03.135Z,93.82
2018-10-17T20:21:31.199Z,98.73
2018-10-17T20:23:59.254Z,97.30
2018-10-17T20:26:27.320Z,97.17
2018-10-17T20:28:56.126Z,95.00
2018-10-17T20:31:24.205Z,98.67
2018-10-17T20:33:52.441Z,99.42
2018-10-17T20:36:20.829Z,96.30
2018-10-17T20:38:48.986Z,100.58
2018-10-17T20:41:17.149Z,105.00
2018-10-17T20:43:45.383Z,105.92
2018-10-17T20:46:13.615Z,107.12
2018-10-17T20:48:41.706Z,108.40
2018-10-17T20:51:09.862Z,113.53
2018-10-17T20:53:38.058Z,109.97
2018-10-17T20:56:06.422Z,114.37
2018-10-17T20:58:34.566Z,115.10
2018-10-17T21:01:02.671Z,115.25
2018-10-17T21:03:30.960Z,115.70
2018-10-17T21:05:59.108Z,117.65
2018-10-17T21:08:27.258Z,118.10
2018-10-17T21:10:55.493Z,117.97
2018-10-17T21:13:23.619Z,116.88
2018-10-17T21:15:51.706Z,119.67
2018-10-17T21:18:19.885Z,122.35
2018-10-17T21:20:48.025Z,123.38
2018-10-17T21:23:16.189Z,120.17
2018-10-17T21:25:44.445Z,119.17
2018-10-17T21:28:12.851Z,118.72
2018-10-17T21:30:40.971Z,119.47
2018-10-17T21:33:09.070Z,119.97
2018-10-17T21:35:37.185Z,120.15
2018-10-17T21:38:05.416Z,124.45
2018-10-17T21:40:33.494Z,119.70
2018-10-17T21:43:01.572Z,120.08
2018-10-17T21:45:29.661Z,126.05
2018-10-17T21:47:57.776Z,120.95
2018-10-17T21:50:25.852Z,121.57
2018-10-17T21:52:53.913Z,121.15
2018-10-17T21:55:21.968Z,123.35
2018-10-17T21:57:50.049Z,120.90
2018-10-17T22:00:18.145Z,116.42
2018-10-17T22:02:46.224Z,116.97
2018-10-17T22:05:14.306Z,111.83
2018-10-17T22:07:42.390Z,109.32
2018-10-17T22:10:10.520Z,103.07
2018-10-17T22:12:38.644Z,101.67
2018-10-17T22:15:07.276Z,101.02
2018-10-17T22:17:35.369Z,104.20
2018-10-17T22:20:03.502Z,100.13
2018-10-17T22:22:31.519Z,99.45
2018-10-17T22:24:59.596Z,97.72
2018-10-17T22:27:27.699Z,101.00
2018-10-17T22:29:55.861Z,98.42
2018-10-17T22:32:23.889Z,97.55
2018-10-17T22:34:52.328Z,96.03
2018-10-17T22:37:20.412Z,99.80
2018-10-17T22:39:48.497Z,94.40
2018-10-17T22:42:16.540Z,90.83
2018-10-17T22:44:44.622Z,91.35
2018-10-17T22:47:12.696Z,88.33
2018-10-17T22:49:41.384Z,94.20
2018-10-17T22:52:09.493Z,80.47
2018-10-17T22:54:37.544Z,81.63
2018-10-17T22:57:05.620Z,78.83
2018-10-17T22:59:33.672Z,80.53
2018-10-17T23:02:01.776Z,78.33
2018-10-17T23:04:29.877Z,79.22
2018-10-17T23:06:57.965Z,78.63
2018-10-17T23:09:26.026Z,76.67
2018-10-17T23:11:54.134Z,78.50
2018-10-17T23:14:22.217Z,77.77
2018-10-17T23:16:50.272Z,78.92
2018-10-17T23:19:18.360Z,77.15
2018-10-17T23:21:46.416Z,77.50
2018-10-17T23:24:14.493Z,78.50
2018-10-17T23:26:42.545Z,77.80
2018-10-17T23:29:10.644Z,78.00
2018-10-17T23:31:38.710Z,78.07
2018-10-17T23:34:06.777Z,75.52
2018-10-17T23:36:34.848Z,75.37
2018-10-17T23:39:03.009Z,74.60
2018-10-17T23:41:31.109Z,72.80
2018-10-17T23:43:59.226Z,69.70
2018-10-17T23:46:27.294Z,71.13
2018-10-17T23:48:55.352Z,72.03
2018-10-17T23:51:23.481Z,70.28
2018-10-17T23:53:51.549Z,68.70
2018-10-17T23:56:19.606Z,71.60
2018-10-17T23:58:47.693Z,70.75
